sensor_id;sensor_type;location;lat;lon;timestamp;P1;durP1;ratioP1;P2;durP2;ratioP2
20245;SDS011;10281;54.406;18.556;2024-02-21T00:02:05;10.23;;;3.50;;
20245;SDS011;10281;54.406;18.556;2024-02-21T00:04:32;11.80;;;3.10;;
20245;SDS011;10281;54.406;18.556;2024-02-21T00:06:59;10.23;;;3.03;;
20245;SDS011;10281;54.406;18.556;2024-02-21T00:09:25;9.37;;;3.23;;
20245;SDS011;10281;54.406;18.556;2024-02-21T00:11:52;9.73;;;3.20;;
20245;SDS011;10281;54.406;18.556;2024-02-21T00:14:18;7.57;;;2.83;;
20245;SDS011;10281;54.406;18.556;2024-02-21T00:16:45;8.60;;;2.50;;
20245;SDS011;10281;54.406;18.556;2024-02-21T00:19:12;11.70;;;2.70;;
20245;SDS011;10281;54.406;18.556;2024-02-21T00:21:40;9.43;;;2.87;;
20245;SDS011;10281;54.406;18.556;2024-02-21T00:24:07;17.30;;;3.57;;
20245;SDS011;10281;54.406;18.556;2024-02-21T00:26:33;10.20;;;3.00;;
20245;SDS011;10281;54.406;18.556;2024-02-21T00:29:00;8.67;;;2.90;;
20245;SDS011;10281;54.406;18.556;2024-02-21T00:31:26;10.60;;;2.73;;
20245;SDS011;10281;54.406;18.556;2024-02-21T00:33:53;10.43;;;2.93;;
20245;SDS011;10281;54.406;18.556;2024-02-21T00:36:20;12.70;;;3.13;;
20245;SDS011;10281;54.406;18.556;2024-02-21T00:38:46;11.43;;;3.00;;
20245;SDS011;10281;54.406;18.556;2024-02-21T00:41:13;14.83;;;2.67;;
20245;SDS011;10281;54.406;18.556;2024-02-21T00:43:39;18.40;;;3.67;;
20245;SDS011;10281;54.406;18.556;2024-02-21T00:46:06;10.93;;;3.20;;
20245;SDS011;10281;54.406;18.556;2024-02-21T00:48:33;9.93;;;3.10;;
20245;SDS011;10281;54.406;18.556;2024-02-21T00:50:59;12.50;;;2.97;;
20245;SDS011;10281;54.406;18.556;2024-02-21T00:53:26;10.97;;;2.97;;
20245;SDS011;10281;54.406;18.556;2024-02-21T00:55:53;12.73;;;4.00;;
20245;SDS011;10281;54.406;18.556;2024-02-21T00:58:20;11.37;;;2.97;;
20245;SDS011;10281;54.406;18.556;2024-02-21T01:00:46;16.83;;;3.37;;
20245;SDS011;10281;54.406;18.556;2024-02-21T01:03:13;13.70;;;3.47;;
20245;SDS011;10281;54.406;18.556;2024-02-21T01:05:40;16.30;;;3.80;;
20245;SDS011;10281;54.406;18.556;2024-02-21T01:08:06;12.67;;;3.80;;
20245;SDS011;10281;54.406;18.556;2024-02-21T01:10:33;18.63;;;4.10;;
20245;SDS011;10281;54.406;18.556;2024-02-21T01:13:00;13.80;;;3.33;;
20245;SDS011;10281;54.406;18.556;2024-02-21T01:15:26;10.73;;;3.10;;
20245;SDS011;10281;54.406;18.556;2024-02-21T01:17:53;17.70;;;3.33;;
20245;SDS011;10281;54.406;18.556;2024-02-21T01:20:20;8.70;;;3.17;;
20245;SDS011;10281;54.406;18.556;2024-02-21T01:22:47;12.83;;;3.27;;
20245;SDS011;10281;54.406;18.556;2024-02-21T01:25:14;11.07;;;3.63;;
20245;SDS011;10281;54.406;18.556;2024-02-21T01:27:40;16.03;;;3.87;;
20245;SDS011;10281;54.406;18.556;2024-02-21T01:30:07;11.17;;;4.33;;
20245;SDS011;10281;54.406;18.556;2024-02-21T01:32:36;16.37;;;4.20;;
20245;SDS011;10281;54.406;18.556;2024-02-21T01:35:03;13.10;;;3.77;;
20245;SDS011;10281;54.406;18.556;2024-02-21T01:37:30;18.00;;;4.47;;
20245;SDS011;10281;54.406;18.556;2024-02-21T01:39:56;15.53;;;4.27;;
20245;SDS011;10281;54.406;18.556;2024-02-21T01:42:23;14.93;;;3.77;;
20245;SDS011;10281;54.406;18.556;2024-02-21T01:44:49;12.80;;;3.57;;
20245;SDS011;10281;54.406;18.556;2024-02-21T01:47:17;13.30;;;4.10;;
20245;SDS011;10281;54.406;18.556;2024-02-21T01:49:43;14.77;;;3.77;;
20245;SDS011;10281;54.406;18.556;2024-02-21T01:52:10;12.90;;;3.93;;
20245;SDS011;10281;54.406;18.556;2024-02-21T01:54:39;16.23;;;4.20;;
20245;SDS011;10281;54.406;18.556;2024-02-21T01:57:06;19.47;;;4.37;;
20245;SDS011;10281;54.406;18.556;2024-02-21T01:59:33;16.37;;;3.63;;
20245;SDS011;10281;54.406;18.556;2024-02-21T02:02:01;12.07;;;4.10;;
20245;SDS011;10281;54.406;18.556;2024-02-21T02:04:28;15.53;;;3.90;;
20245;SDS011;10281;54.406;18.556;2024-02-21T02:06:55;12.57;;;4.47;;
20245;SDS011;10281;54.406;18.556;2024-02-21T02:09:22;16.53;;;3.80;;
20245;SDS011;10281;54.406;18.556;2024-02-21T02:11:49;13.07;;;4.40;;
20245;SDS011;10281;54.406;18.556;2024-02-21T02:14:16;11.70;;;3.93;;
20245;SDS011;10281;54.406;18.556;2024-02-21T02:16:45;15.27;;;4.13;;
20245;SDS011;10281;54.406;18.556;2024-02-21T02:19:13;14.13;;;3.73;;
20245;SDS011;10281;54.406;18.556;2024-02-21T02:21:42;15.77;;;4.27;;
20245;SDS011;10281;54.406;18.556;2024-02-21T02:24:14;17.80;;;3.97;;
20245;SDS011;10281;54.406;18.556;2024-02-21T02:26:40;16.03;;;4.30;;
20245;SDS011;10281;54.406;18.556;2024-02-21T02:29:07;16.83;;;3.80;;
20245;SDS011;10281;54.406;18.556;2024-02-21T02:31:34;15.80;;;4.60;;
20245;SDS011;10281;54.406;18.556;2024-02-21T02:34:00;13.50;;;4.13;;
20245;SDS011;10281;54.406;18.556;2024-02-21T02:36:27;17.30;;;4.80;;
20245;SDS011;10281;54.406;18.556;2024-02-21T02:38:54;12.57;;;3.67;;
20245;SDS011;10281;54.406;18.556;2024-02-21T02:41:20;17.73;;;4.37;;
20245;SDS011;10281;54.406;18.556;2024-02-21T02:43:47;16.97;;;4.40;;
20245;SDS011;10281;54.406;18.556;2024-02-21T02:46:14;14.43;;;4.07;;
20245;SDS011;10281;54.406;18.556;2024-02-21T02:48:40;16.37;;;4.13;;
20245;SDS011;10281;54.406;18.556;2024-02-21T02:51:07;13.97;;;3.87;;
20245;SDS011;10281;54.406;18.556;2024-02-21T02:53:33;17.97;;;4.23;;
20245;SDS011;10281;54.406;18.556;2024-02-21T02:56:00;16.07;;;4.17;;
20245;SDS011;10281;54.406;18.556;2024-02-21T02:58:27;13.73;;;4.10;;
20245;SDS011;10281;54.406;18.556;2024-02-21T03:00:54;15.73;;;4.20;;
20245;SDS011;10281;54.406;18.556;2024-02-21T03:03:20;17.00;;;4.83;;
20245;SDS011;10281;54.406;18.556;2024-02-21T03:05:47;21.13;;;4.40;;
20245;SDS011;10281;54.406;18.556;2024-02-21T03:08:14;14.03;;;4.40;;
20245;SDS011;10281;54.406;18.556;2024-02-21T03:10:40;12.37;;;4.30;;
20245;SDS011;10281;54.406;18.556;2024-02-21T03:13:07;16.77;;;5.07;;
20245;SDS011;10281;54.406;18.556;2024-02-21T03:15:33;16.70;;;4.83;;
20245;SDS011;10281;54.406;18.556;2024-02-21T03:18:00;11.83;;;4.00;;
20245;SDS011;10281;54.406;18.556;2024-02-21T03:20:27;8.87;;;3.83;;
20245;SDS011;10281;54.406;18.556;2024-02-21T03:22:53;16.13;;;4.70;;
20245;SDS011;10281;54.406;18.556;2024-02-21T03:25:20;12.67;;;3.90;;
20245;SDS011;10281;54.406;18.556;2024-02-21T03:27:46;13.43;;;4.60;;
20245;SDS011;10281;54.406;18.556;2024-02-21T03:30:13;17.10;;;3.97;;
20245;SDS011;10281;54.406;18.556;2024-02-21T03:32:40;18.47;;;4.63;;
20245;SDS011;10281;54.406;18.556;2024-02-21T03:35:06;13.03;;;4.90;;
20245;SDS011;10281;54.406;18.556;2024-02-21T03:37:34;14.97;;;4.40;;
20245;SDS011;10281;54.406;18.556;2024-02-21T03:40:00;16.47;;;4.17;;
20245;SDS011;10281;54.406;18.556;2024-02-21T03:42:27;12.43;;;3.83;;
20245;SDS011;10281;54.406;18.556;2024-02-21T03:44:56;14.23;;;4.50;;
20245;SDS011;10281;54.406;18.556;2024-02-21T03:47:23;17.90;;;4.73;;
20245;SDS011;10281;54.406;18.556;2024-02-21T03:49:50;13.80;;;3.97;;
20245;SDS011;10281;54.406;18.556;2024-02-21T03:52:16;14.90;;;4.60;;
20245;SDS011;10281;54.406;18.556;2024-02-21T03:54:43;12.27;;;4.33;;
20245;SDS011;10281;54.406;18.556;2024-02-21T03:57:10;14.87;;;4.73;;
20245;SDS011;10281;54.406;18.556;2024-02-21T03:59:36;10.90;;;4.53;;
20245;SDS011;10281;54.406;18.556;2024-02-21T04:02:05;17.63;;;4.77;;
20245;SDS011;10281;54.406;18.556;2024-02-21T04:04:34;15.40;;;4.30;;
20245;SDS011;10281;54.406;18.556;2024-02-21T04:07:04;15.20;;;4.10;;
20245;SDS011;10281;54.406;18.556;2024-02-21T04:09:33;14.37;;;4.80;;
20245;SDS011;10281;54.406;18.556;2024-02-21T04:12:00;13.60;;;4.43;;
20245;SDS011;10281;54.406;18.556;2024-02-21T04:14:27;14.40;;;4.03;;
20245;SDS011;10281;54.406;18.556;2024-02-21T04:16:53;11.00;;;3.97;;
20245;SDS011;10281;54.406;18.556;2024-02-21T04:19:20;11.53;;;3.60;;
20245;SDS011;10281;54.406;18.556;2024-02-21T04:21:47;13.47;;;3.93;;
20245;SDS011;10281;54.406;18.556;2024-02-21T04:24:13;11.53;;;4.13;;
20245;SDS011;10281;54.406;18.556;2024-02-21T04:26:40;13.70;;;3.70;;
20245;SDS011;10281;54.406;18.556;2024-02-21T04:29:07;13.93;;;4.33;;
20245;SDS011;10281;54.406;18.556;2024-02-21T04:31:33;9.57;;;3.33;;
20245;SDS011;10281;54.406;18.556;2024-02-21T04:34:00;13.63;;;3.50;;
20245;SDS011;10281;54.406;18.556;2024-02-21T04:36:28;14.20;;;4.20;;
20245;SDS011;10281;54.406;18.556;2024-02-21T04:38:55;11.10;;;4.10;;
20245;SDS011;10281;54.406;18.556;2024-02-21T04:41:21;10.77;;;3.67;;
20245;SDS011;10281;54.406;18.556;2024-02-21T04:43:48;11.07;;;3.50;;
20245;SDS011;10281;54.406;18.556;2024-02-21T04:46:14;11.83;;;3.67;;
20245;SDS011;10281;54.406;18.556;2024-02-21T04:48:41;11.33;;;3.70;;
20245;SDS011;10281;54.406;18.556;2024-02-21T04:51:08;10.37;;;4.00;;
20245;SDS011;10281;54.406;18.556;2024-02-21T04:53:34;13.93;;;3.87;;
20245;SDS011;10281;54.406;18.556;2024-02-21T04:56:01;10.47;;;3.50;;
20245;SDS011;10281;54.406;18.556;2024-02-21T04:58:28;11.07;;;3.10;;
20245;SDS011;10281;54.406;18.556;2024-02-21T05:00:54;9.27;;;3.07;;
20245;SDS011;10281;54.406;18.556;2024-02-21T05:03:21;11.30;;;3.60;;
20245;SDS011;10281;54.406;18.556;2024-02-21T05:05:48;11.47;;;3.10;;
20245;SDS011;10281;54.406;18.556;2024-02-21T05:08:14;13.00;;;3.80;;
20245;SDS011;10281;54.406;18.556;2024-02-21T05:10:41;11.77;;;3.30;;
20245;SDS011;10281;54.406;18.556;2024-02-21T05:13:08;10.17;;;3.47;;
20245;SDS011;10281;54.406;18.556;2024-02-21T05:15:34;8.80;;;4.03;;
20245;SDS011;10281;54.406;18.556;2024-02-21T05:18:01;13.63;;;4.33;;
20245;SDS011;10281;54.406;18.556;2024-02-21T05:20:27;10.17;;;4.13;;
20245;SDS011;10281;54.406;18.556;2024-02-21T05:22:54;13.53;;;4.40;;
20245;SDS011;10281;54.406;18.556;2024-02-21T05:25:21;8.40;;;3.73;;
20245;SDS011;10281;54.406;18.556;2024-02-21T05:27:47;12.97;;;3.80;;
20245;SDS011;10281;54.406;18.556;2024-02-21T05:30:17;8.87;;;3.33;;
20245;SDS011;10281;54.406;18.556;2024-02-21T05:32:44;8.00;;;3.30;;
20245;SDS011;10281;54.406;18.556;2024-02-21T05:35:11;14.90;;;4.33;;
20245;SDS011;10281;54.406;18.556;2024-02-21T05:37:37;9.57;;;4.80;;
20245;SDS011;10281;54.406;18.556;2024-02-21T05:40:04;9.23;;;3.83;;
20245;SDS011;10281;54.406;18.556;2024-02-21T05:42:31;8.93;;;4.10;;
20245;SDS011;10281;54.406;18.556;2024-02-21T05:44:58;10.33;;;3.87;;
20245;SDS011;10281;54.406;18.556;2024-02-21T05:47:25;11.20;;;4.47;;
20245;SDS011;10281;54.406;18.556;2024-02-21T05:49:51;15.10;;;5.10;;
20245;SDS011;10281;54.406;18.556;2024-02-21T05:52:20;12.53;;;5.00;;
20245;SDS011;10281;54.406;18.556;2024-02-21T05:54:46;14.20;;;5.03;;
20245;SDS011;10281;54.406;18.556;2024-02-21T05:57:13;9.23;;;4.57;;
20245;SDS011;10281;54.406;18.556;2024-02-21T05:59:39;13.77;;;4.77;;
20245;SDS011;10281;54.406;18.556;2024-02-21T06:02:07;11.03;;;4.63;;
20245;SDS011;10281;54.406;18.556;2024-02-21T06:04:34;12.03;;;4.53;;
20245;SDS011;10281;54.406;18.556;2024-02-21T06:07:01;9.87;;;4.73;;
20245;SDS011;10281;54.406;18.556;2024-02-21T06:09:28;10.87;;;5.37;;
20245;SDS011;10281;54.406;18.556;2024-02-21T06:11:54;12.03;;;4.87;;
20245;SDS011;10281;54.406;18.556;2024-02-21T06:14:21;10.43;;;5.30;;
20245;SDS011;10281;54.406;18.556;2024-02-21T06:16:48;13.47;;;5.30;;
20245;SDS011;10281;54.406;18.556;2024-02-21T06:19:14;11.43;;;5.00;;
20245;SDS011;10281;54.406;18.556;2024-02-21T06:21:41;9.87;;;4.90;;
20245;SDS011;10281;54.406;18.556;2024-02-21T06:24:07;13.63;;;5.53;;
20245;SDS011;10281;54.406;18.556;2024-02-21T06:26:34;14.40;;;5.27;;
20245;SDS011;10281;54.406;18.556;2024-02-21T06:29:01;14.67;;;5.47;;
20245;SDS011;10281;54.406;18.556;2024-02-21T06:31:27;10.43;;;5.60;;
20245;SDS011;10281;54.406;18.556;2024-02-21T06:33:55;10.80;;;5.33;;
20245;SDS011;10281;54.406;18.556;2024-02-21T06:36:21;12.90;;;5.37;;
20245;SDS011;10281;54.406;18.556;2024-02-21T06:38:48;11.20;;;5.17;;
20245;SDS011;10281;54.406;18.556;2024-02-21T06:41:16;13.77;;;5.57;;
20245;SDS011;10281;54.406;18.556;2024-02-21T06:43:45;11.93;;;5.30;;
20245;SDS011;10281;54.406;18.556;2024-02-21T06:48:50;9.97;;;5.67;;
20245;SDS011;10281;54.406;18.556;2024-02-21T06:51:17;10.17;;;5.40;;
20245;SDS011;10281;54.406;18.556;2024-02-21T06:53:44;13.83;;;5.30;;
20245;SDS011;10281;54.406;18.556;2024-02-21T06:56:11;13.93;;;5.80;;
20245;SDS011;10281;54.406;18.556;2024-02-21T06:58:37;13.73;;;5.13;;
20245;SDS011;10281;54.406;18.556;2024-02-21T07:01:04;12.87;;;5.67;;
20245;SDS011;10281;54.406;18.556;2024-02-21T07:03:30;13.27;;;5.73;;
20245;SDS011;10281;54.406;18.556;2024-02-21T07:05:57;11.80;;;5.03;;
20245;SDS011;10281;54.406;18.556;2024-02-21T07:08:24;14.40;;;5.63;;
20245;SDS011;10281;54.406;18.556;2024-02-21T07:10:51;15.03;;;6.90;;
20245;SDS011;10281;54.406;18.556;2024-02-21T07:13:18;13.50;;;6.27;;
20245;SDS011;10281;54.406;18.556;2024-02-21T07:15:46;14.10;;;6.67;;
20245;SDS011;10281;54.406;18.556;2024-02-21T07:18:13;16.07;;;6.97;;
20245;SDS011;10281;54.406;18.556;2024-02-21T07:20:39;21.20;;;6.90;;
20245;SDS011;10281;54.406;18.556;2024-02-21T07:23:07;13.90;;;6.13;;
20245;SDS011;10281;54.406;18.556;2024-02-21T07:25:34;17.07;;;6.47;;
20245;SDS011;10281;54.406;18.556;2024-02-21T07:28:01;13.83;;;5.67;;
20245;SDS011;10281;54.406;18.556;2024-02-21T07:30:28;12.93;;;6.20;;
20245;SDS011;10281;54.406;18.556;2024-02-21T07:32:55;13.60;;;5.63;;
20245;SDS011;10281;54.406;18.556;2024-02-21T07:35:21;17.87;;;6.10;;
20245;SDS011;10281;54.406;18.556;2024-02-21T07:37:48;13.90;;;7.07;;
20245;SDS011;10281;54.406;18.556;2024-02-21T07:40:15;17.70;;;7.00;;
20245;SDS011;10281;54.406;18.556;2024-02-21T07:42:43;19.47;;;6.97;;
20245;SDS011;10281;54.406;18.556;2024-02-21T07:45:10;15.90;;;6.80;;
20245;SDS011;10281;54.406;18.556;2024-02-21T07:47:37;16.00;;;7.03;;
20245;SDS011;10281;54.406;18.556;2024-02-21T07:50:04;15.73;;;7.20;;
20245;SDS011;10281;54.406;18.556;2024-02-21T07:52:31;17.30;;;6.50;;
20245;SDS011;10281;54.406;18.556;2024-02-21T07:54:58;18.43;;;7.70;;
20245;SDS011;10281;54.406;18.556;2024-02-21T07:57:24;17.33;;;7.90;;
20245;SDS011;10281;54.406;18.556;2024-02-21T07:59:51;20.77;;;7.90;;
20245;SDS011;10281;54.406;18.556;2024-02-21T08:02:18;16.90;;;7.67;;
20245;SDS011;10281;54.406;18.556;2024-02-21T08:04:44;18.53;;;8.23;;
20245;SDS011;10281;54.406;18.556;2024-02-21T08:07:11;15.60;;;7.40;;
20245;SDS011;10281;54.406;18.556;2024-02-21T08:09:39;20.83;;;7.93;;
20245;SDS011;10281;54.406;18.556;2024-02-21T08:12:06;20.87;;;8.53;;
20245;SDS011;10281;54.406;18.556;2024-02-21T08:14:33;18.70;;;7.50;;
20245;SDS011;10281;54.406;18.556;2024-02-21T08:16:59;20.43;;;6.97;;
20245;SDS011;10281;54.406;18.556;2024-02-21T08:19:26;14.43;;;6.70;;
20245;SDS011;10281;54.406;18.556;2024-02-21T08:21:53;15.47;;;7.10;;
20245;SDS011;10281;54.406;18.556;2024-02-21T08:24:19;11.80;;;7.10;;
20245;SDS011;10281;54.406;18.556;2024-02-21T08:26:48;15.07;;;6.50;;
20245;SDS011;10281;54.406;18.556;2024-02-21T08:29:15;14.17;;;6.40;;
20245;SDS011;10281;54.406;18.556;2024-02-21T08:31:41;13.13;;;7.50;;
20245;SDS011;10281;54.406;18.556;2024-02-21T08:34:08;13.77;;;6.70;;
20245;SDS011;10281;54.406;18.556;2024-02-21T08:36:34;13.87;;;6.13;;
20245;SDS011;10281;54.406;18.556;2024-02-21T08:39:02;12.67;;;6.97;;
20245;SDS011;10281;54.406;18.556;2024-02-21T08:41:30;12.63;;;6.60;;
20245;SDS011;10281;54.406;18.556;2024-02-21T08:43:58;13.20;;;6.73;;
20245;SDS011;10281;54.406;18.556;2024-02-21T08:46:24;12.17;;;6.50;;
20245;SDS011;10281;54.406;18.556;2024-02-21T08:48:52;11.83;;;6.10;;
20245;SDS011;10281;54.406;18.556;2024-02-21T08:51:19;10.77;;;6.10;;
20245;SDS011;10281;54.406;18.556;2024-02-21T08:53:48;13.93;;;7.43;;
20245;SDS011;10281;54.406;18.556;2024-02-21T08:56:15;15.47;;;7.53;;
20245;SDS011;10281;54.406;18.556;2024-02-21T08:58:43;22.87;;;13.80;;
20245;SDS011;10281;54.406;18.556;2024-02-21T09:01:10;13.30;;;8.33;;
20245;SDS011;10281;54.406;18.556;2024-02-21T09:03:37;15.20;;;7.27;;
20245;SDS011;10281;54.406;18.556;2024-02-21T09:06:05;12.97;;;6.93;;
20245;SDS011;10281;54.406;18.556;2024-02-21T09:08:32;15.73;;;7.60;;
20245;SDS011;10281;54.406;18.556;2024-02-21T09:10:59;13.50;;;8.20;;
20245;SDS011;10281;54.406;18.556;2024-02-21T09:13:27;15.80;;;7.70;;
20245;SDS011;10281;54.406;18.556;2024-02-21T09:15:54;18.20;;;9.07;;
20245;SDS011;10281;54.406;18.556;2024-02-21T09:18:21;15.77;;;8.13;;
20245;SDS011;10281;54.406;18.556;2024-02-21T09:20:47;21.67;;;10.13;;
20245;SDS011;10281;54.406;18.556;2024-02-21T09:23:14;15.63;;;9.30;;
20245;SDS011;10281;54.406;18.556;2024-02-21T09:25:41;15.13;;;8.97;;
20245;SDS011;10281;54.406;18.556;2024-02-21T09:28:07;16.63;;;8.70;;
20245;SDS011;10281;54.406;18.556;2024-02-21T09:30:35;16.53;;;8.77;;
20245;SDS011;10281;54.406;18.556;2024-02-21T09:33:03;18.20;;;9.80;;
20245;SDS011;10281;54.406;18.556;2024-02-21T09:35:30;19.07;;;9.93;;
20245;SDS011;10281;54.406;18.556;2024-02-21T09:37:59;20.93;;;9.50;;
20245;SDS011;10281;54.406;18.556;2024-02-21T09:40:26;17.03;;;10.97;;
20245;SDS011;10281;54.406;18.556;2024-02-21T09:43:01;18.73;;;9.80;;
20245;SDS011;10281;54.406;18.556;2024-02-21T09:45:23;13.23;;;9.00;;
20245;SDS011;10281;54.406;18.556;2024-02-21T09:47:55;16.77;;;9.83;;
20245;SDS011;10281;54.406;18.556;2024-02-21T09:50:37;19.03;;;9.90;;
20245;SDS011;10281;54.406;18.556;2024-02-21T09:53:06;17.30;;;10.73;;
20245;SDS011;10281;54.406;18.556;2024-02-21T09:55:33;15.73;;;9.27;;
20245;SDS011;10281;54.406;18.556;2024-02-21T09:58:01;18.73;;;10.13;;
20245;SDS011;10281;54.406;18.556;2024-02-21T10:00:29;14.53;;;9.20;;
20245;SDS011;10281;54.406;18.556;2024-02-21T10:02:55;14.33;;;8.63;;
20245;SDS011;10281;54.406;18.556;2024-02-21T10:05:22;15.97;;;9.00;;
20245;SDS011;10281;54.406;18.556;2024-02-21T10:07:50;16.87;;;8.47;;
20245;SDS011;10281;54.406;18.556;2024-02-21T10:10:18;11.63;;;7.80;;
20245;SDS011;10281;54.406;18.556;2024-02-21T10:12:49;11.13;;;7.90;;
20245;SDS011;10281;54.406;18.556;2024-02-21T10:15:20;12.40;;;7.27;;
20245;SDS011;10281;54.406;18.556;2024-02-21T10:17:48;11.10;;;7.03;;
20245;SDS011;10281;54.406;18.556;2024-02-21T10:20:15;11.00;;;7.50;;
20245;SDS011;10281;54.406;18.556;2024-02-21T10:22:42;8.90;;;6.10;;
20245;SDS011;10281;54.406;18.556;2024-02-21T10:25:10;10.40;;;6.83;;
20245;SDS011;10281;54.406;18.556;2024-02-21T10:27:39;8.47;;;6.40;;
20245;SDS011;10281;54.406;18.556;2024-02-21T10:30:12;9.13;;;6.67;;
20245;SDS011;10281;54.406;18.556;2024-02-21T10:35:24;8.30;;;5.83;;
20245;SDS011;10281;54.406;18.556;2024-02-21T10:37:50;10.13;;;6.40;;
20245;SDS011;10281;54.406;18.556;2024-02-21T10:40:19;6.17;;;5.23;;
20245;SDS011;10281;54.406;18.556;2024-02-21T10:42:46;7.77;;;5.73;;
20245;SDS011;10281;54.406;18.556;2024-02-21T10:45:14;7.33;;;5.30;;
20245;SDS011;10281;54.406;18.556;2024-02-21T10:47:41;7.33;;;5.60;;
20245;SDS011;10281;54.406;18.556;2024-02-21T10:50:13;6.73;;;5.00;;
20245;SDS011;10281;54.406;18.556;2024-02-21T10:52:45;8.63;;;4.97;;
20245;SDS011;10281;54.406;18.556;2024-02-21T10:55:33;7.00;;;5.10;;
20245;SDS011;10281;54.406;18.556;2024-02-21T10:58:00;5.90;;;4.27;;
20245;SDS011;10281;54.406;18.556;2024-02-21T11:00:28;5.47;;;4.20;;
20245;SDS011;10281;54.406;18.556;2024-02-21T11:02:57;6.53;;;4.80;;
20245;SDS011;10281;54.406;18.556;2024-02-21T11:05:25;5.00;;;3.93;;
20245;SDS011;10281;54.406;18.556;2024-02-21T11:07:53;6.00;;;3.90;;
20245;SDS011;10281;54.406;18.556;2024-02-21T11:10:22;4.90;;;3.60;;
20245;SDS011;10281;54.406;18.556;2024-02-21T11:12:53;4.50;;;3.37;;
20245;SDS011;10281;54.406;18.556;2024-02-21T11:15:25;4.20;;;3.80;;
20245;SDS011;10281;54.406;18.556;2024-02-21T11:17:54;5.57;;;3.50;;
20245;SDS011;10281;54.406;18.556;2024-02-21T11:20:31;5.03;;;3.90;;
20245;SDS011;10281;54.406;18.556;2024-02-21T11:22:57;6.43;;;3.67;;
20245;SDS011;10281;54.406;18.556;2024-02-21T11:25:23;5.00;;;3.57;;
20245;SDS011;10281;54.406;18.556;2024-02-21T11:27:58;4.50;;;3.53;;
20245;SDS011;10281;54.406;18.556;2024-02-21T11:30:35;6.10;;;3.60;;
20245;SDS011;10281;54.406;18.556;2024-02-21T11:33:03;4.93;;;3.90;;
20245;SDS011;10281;54.406;18.556;2024-02-21T11:35:33;5.23;;;3.80;;
20245;SDS011;10281;54.406;18.556;2024-02-21T11:40:38;5.47;;;3.93;;
20245;SDS011;10281;54.406;18.556;2024-02-21T11:43:06;4.90;;;4.13;;
20245;SDS011;10281;54.406;18.556;2024-02-21T11:45:33;4.80;;;4.27;;
20245;SDS011;10281;54.406;18.556;2024-02-21T11:47:59;7.03;;;4.30;;
20245;SDS011;10281;54.406;18.556;2024-02-21T11:50:28;5.27;;;4.10;;
20245;SDS011;10281;54.406;18.556;2024-02-21T11:52:57;5.93;;;4.30;;
20245;SDS011;10281;54.406;18.556;2024-02-21T11:55:24;5.83;;;4.50;;
20245;SDS011;10281;54.406;18.556;2024-02-21T11:57:50;4.70;;;4.13;;
20245;SDS011;10281;54.406;18.556;2024-02-21T12:00:18;6.63;;;4.50;;
20245;SDS011;10281;54.406;18.556;2024-02-21T12:02:46;6.43;;;4.30;;
20245;SDS011;10281;54.406;18.556;2024-02-21T12:05:14;7.03;;;4.83;;
20245;SDS011;10281;54.406;18.556;2024-02-21T12:07:40;5.57;;;4.17;;
20245;SDS011;10281;54.406;18.556;2024-02-21T12:10:08;7.53;;;4.30;;
20245;SDS011;10281;54.406;18.556;2024-02-21T12:12:38;6.77;;;4.10;;
20245;SDS011;10281;54.406;18.556;2024-02-21T12:15:05;5.73;;;4.63;;
20245;SDS011;10281;54.406;18.556;2024-02-21T12:17:33;6.90;;;4.50;;
20245;SDS011;10281;54.406;18.556;2024-02-21T12:20:02;6.30;;;4.57;;
20245;SDS011;10281;54.406;18.556;2024-02-21T12:22:31;5.03;;;4.17;;
20245;SDS011;10281;54.406;18.556;2024-02-21T12:24:58;6.47;;;3.93;;
20245;SDS011;10281;54.406;18.556;2024-02-21T12:27:25;5.63;;;3.60;;
20245;SDS011;10281;54.406;18.556;2024-02-21T12:29:52;4.10;;;3.50;;
20245;SDS011;10281;54.406;18.556;2024-02-21T12:32:18;6.30;;;3.30;;
20245;SDS011;10281;54.406;18.556;2024-02-21T12:34:45;6.47;;;3.47;;
20245;SDS011;10281;54.406;18.556;2024-02-21T12:37:12;5.10;;;3.57;;
20245;SDS011;10281;54.406;18.556;2024-02-21T12:39:38;5.57;;;3.30;;
20245;SDS011;10281;54.406;18.556;2024-02-21T12:42:05;3.70;;;2.83;;
20245;SDS011;10281;54.406;18.556;2024-02-21T12:44:32;4.30;;;3.23;;
20245;SDS011;10281;54.406;18.556;2024-02-21T12:46:59;4.40;;;2.93;;
20245;SDS011;10281;54.406;18.556;2024-02-21T12:49:26;4.83;;;3.20;;
20245;SDS011;10281;54.406;18.556;2024-02-21T12:51:55;5.77;;;2.90;;
20245;SDS011;10281;54.406;18.556;2024-02-21T12:54:21;4.67;;;2.50;;
20245;SDS011;10281;54.406;18.556;2024-02-21T12:56:49;3.33;;;2.13;;
20245;SDS011;10281;54.406;18.556;2024-02-21T12:59:15;4.43;;;2.40;;
20245;SDS011;10281;54.406;18.556;2024-02-21T13:01:42;4.40;;;2.20;;
20245;SDS011;10281;54.406;18.556;2024-02-21T13:04:09;3.73;;;2.30;;
20245;SDS011;10281;54.406;18.556;2024-02-21T13:06:37;3.13;;;2.27;;
20245;SDS011;10281;54.406;18.556;2024-02-21T13:09:03;5.37;;;2.40;;
20245;SDS011;10281;54.406;18.556;2024-02-21T13:11:32;4.03;;;2.20;;
20245;SDS011;10281;54.406;18.556;2024-02-21T13:14:00;4.73;;;1.90;;
20245;SDS011;10281;54.406;18.556;2024-02-21T13:16:26;4.07;;;2.20;;
20245;SDS011;10281;54.406;18.556;2024-02-21T13:18:53;3.30;;;1.93;;
20245;SDS011;10281;54.406;18.556;2024-02-21T13:21:20;4.63;;;2.10;;
20245;SDS011;10281;54.406;18.556;2024-02-21T13:23:46;3.30;;;1.90;;
20245;SDS011;10281;54.406;18.556;2024-02-21T13:26:13;3.90;;;2.23;;
20245;SDS011;10281;54.406;18.556;2024-02-21T13:28:41;4.33;;;1.97;;
20245;SDS011;10281;54.406;18.556;2024-02-21T13:31:07;3.83;;;2.20;;
20245;SDS011;10281;54.406;18.556;2024-02-21T13:33:34;2.70;;;1.90;;
20245;SDS011;10281;54.406;18.556;2024-02-21T13:36:02;2.50;;;2.10;;
20245;SDS011;10281;54.406;18.556;2024-02-21T13:38:29;4.93;;;2.10;;
20245;SDS011;10281;54.406;18.556;2024-02-21T13:40:56;4.97;;;2.60;;
20245;SDS011;10281;54.406;18.556;2024-02-21T13:43:22;3.50;;;2.63;;
20245;SDS011;10281;54.406;18.556;2024-02-21T13:45:56;5.90;;;2.80;;
20245;SDS011;10281;54.406;18.556;2024-02-21T13:48:25;3.80;;;2.20;;
20245;SDS011;10281;54.406;18.556;2024-02-21T13:50:52;4.33;;;2.83;;
20245;SDS011;10281;54.406;18.556;2024-02-21T13:53:19;7.43;;;4.00;;
20245;SDS011;10281;54.406;18.556;2024-02-21T13:55:47;7.57;;;3.70;;
20245;SDS011;10281;54.406;18.556;2024-02-21T13:58:13;6.60;;;2.97;;
20245;SDS011;10281;54.406;18.556;2024-02-21T14:00:41;4.70;;;3.60;;
20245;SDS011;10281;54.406;18.556;2024-02-21T14:03:07;6.80;;;6.10;;
20245;SDS011;10281;54.406;18.556;2024-02-21T14:05:35;8.87;;;6.30;;
20245;SDS011;10281;54.406;18.556;2024-02-21T14:08:02;6.10;;;3.83;;
20245;SDS011;10281;54.406;18.556;2024-02-21T14:10:28;5.70;;;2.73;;
20245;SDS011;10281;54.406;18.556;2024-02-21T14:12:55;4.37;;;2.20;;
20245;SDS011;10281;54.406;18.556;2024-02-21T14:15:22;3.90;;;1.97;;
20245;SDS011;10281;54.406;18.556;2024-02-21T14:17:50;3.77;;;2.53;;
20245;SDS011;10281;54.406;18.556;2024-02-21T14:20:17;3.10;;;2.27;;
20245;SDS011;10281;54.406;18.556;2024-02-21T14:22:43;5.00;;;2.27;;
20245;SDS011;10281;54.406;18.556;2024-02-21T14:25:10;4.90;;;2.70;;
20245;SDS011;10281;54.406;18.556;2024-02-21T14:27:38;2.43;;;2.10;;
20245;SDS011;10281;54.406;18.556;2024-02-21T14:30:05;6.70;;;2.23;;
20245;SDS011;10281;54.406;18.556;2024-02-21T14:32:32;5.27;;;2.83;;
20245;SDS011;10281;54.406;18.556;2024-02-21T14:34:58;2.40;;;1.93;;